createdAt,value
2022-10-02T00:00:03.491Z,0
2022-10-02T00:05:03.138Z,0
2022-10-02T00:10:02.767Z,0
2022-10-02T00:15:02.663Z,0
2022-10-02T00:20:03.418Z,0
2022-10-02T00:25:03.154Z,0
2022-10-02T00:30:03.890Z,0
2022-10-02T00:35:03.057Z,0
2022-10-02T00:40:03.028Z,0
2022-10-02T00:45:02.743Z,0
2022-10-02T00:50:03.301Z,0
2022-10-02T00:55:03.816Z,0
2022-10-02T01:00:02.665Z,0
2022-10-02T01:05:03.337Z,0
2022-10-02T01:10:03.138Z,0
2022-10-02T01:15:03.349Z,0
2022-10-02T01:20:02.998Z,0
2022-10-02T01:25:02.725Z,0
2022-10-02T01:30:03.542Z,0
2022-10-02T01:35:02.957Z,0
2022-10-02T01:40:02.740Z,0
2022-10-02T01:45:03.667Z,0
2022-10-02T01:50:03.187Z,0
2022-10-02T01:55:03.733Z,0
2022-10-02T02:00:03.617Z,0
2022-10-02T02:05:03.122Z,0
2022-10-02T02:10:02.927Z,0
2022-10-02T02:15:03.325Z,0
2022-10-02T02:20:03.107Z,0
2022-10-02T02:25:02.858Z,0
2022-10-02T02:30:02.567Z,0
2022-10-02T02:35:03.267Z,0
2022-10-02T02:40:02.767Z,0
2022-10-02T02:45:03.632Z,0
2022-10-02T02:50:03.076Z,0
2022-10-02T02:55:03.914Z,0
2022-10-02T03:00:03.396Z,0
2022-10-02T03:05:03.138Z,0
2022-10-02T03:10:02.686Z,0
2022-10-02T03:15:03.535Z,0
2022-10-02T03:20:03.086Z,0
2022-10-02T03:25:02.813Z,0
2022-10-02T03:30:03.359Z,0
2022-10-02T03:35:03.132Z,0
2022-10-02T03:40:02.648Z,0
2022-10-02T03:45:03.471Z,0
2022-10-02T03:50:02.917Z,0
2022-10-02T03:55:03.755Z,0
2022-10-02T04:00:03.232Z,0
2022-10-02T04:05:03.042Z,0
2022-10-02T04:10:02.539Z,0
2022-10-02T04:15:03.589Z,0
2022-10-02T04:20:02.923Z,0
2022-10-02T04:25:02.806Z,0
2022-10-02T04:30:03.209Z,0
2022-10-02T04:35:03.017Z,0
2022-10-02T04:40:02.538Z,0.57
2022-10-02T04:45:03.405Z,1.92
2022-10-02T04:50:02.874Z,5.32
2022-10-02T04:55:03.817Z,5
2022-10-02T05:00:03.524Z,16.67
2022-10-02T05:05:03.193Z,36.67
2022-10-02T05:10:02.555Z,111.67
2022-10-02T05:15:03.359Z,173.33
2022-10-02T05:20:03.153Z,241.67
2022-10-02T05:25:02.675Z,326.67
2022-10-02T05:30:03.539Z,416.67
2022-10-02T05:35:03.160Z,513.33
2022-10-02T05:40:02.946Z,618.33
2022-10-02T05:45:02.535Z,788.33
2022-10-02T05:50:03.191Z,863.33
2022-10-02T05:55:04.146Z,1265
2022-10-02T06:00:03.468Z,1770
2022-10-02T06:05:03.249Z,2521.67
2022-10-02T06:10:02.751Z,3238.33
2022-10-02T06:15:03.399Z,2641.67
2022-10-02T06:20:04.593Z,1816.67
2022-10-02T06:25:02.769Z,1565
2022-10-02T06:30:03.571Z,2505
2022-10-02T06:35:03.021Z,3948.33
2022-10-02T06:40:02.843Z,3691.67
2022-10-02T06:45:03.358Z,3121.67
2022-10-02T06:50:03.090Z,4505
2022-10-02T06:55:03.847Z,2548.33
2022-10-02T07:00:03.382Z,2170
2022-10-02T07:05:02.864Z,2393.33
2022-10-02T07:10:02.683Z,2848.33
2022-10-02T07:15:03.149Z,2285
2022-10-02T07:20:03.031Z,1988.33
2022-10-02T07:25:02.519Z,2428.33
2022-10-02T07:30:03.323Z,1933.33
2022-10-02T07:35:02.775Z,2216.67
2022-10-02T07:40:03.564Z,2591.67
2022-10-02T07:45:03.093Z,3141.67
2022-10-02T07:50:02.822Z,4230
2022-10-02T07:55:04.199Z,4156.67
2022-10-02T08:00:03.445Z,6828.33
2022-10-02T08:05:03.002Z,5075
2022-10-02T08:10:02.918Z,3876.67
2022-10-02T08:15:03.330Z,1345
2022-10-02T08:20:03.134Z,1065
2022-10-02T08:25:02.684Z,1151.67
2022-10-02T08:30:03.502Z,1048.33
2022-10-02T08:35:03.229Z,2848.33
2022-10-02T08:40:03.086Z,4363.33
2022-10-02T08:45:02.773Z,5816.67
2022-10-02T08:50:03.182Z,5576.67
2022-10-02T08:55:04.214Z,7855
2022-10-02T09:00:02.621Z,11513.33
2022-10-02T09:05:03.233Z,8156.67
2022-10-02T09:10:02.941Z,6266.67
2022-10-02T09:15:02.903Z,6666.67
2022-10-02T09:20:03.375Z,7100
2022-10-02T09:25:03.136Z,10026.67
2022-10-02T09:30:02.905Z,10933.33
2022-10-02T09:35:02.800Z,7983.33
2022-10-02T09:40:03.345Z,35706.67
2022-10-02T09:45:03.164Z,6626.67
2022-10-02T09:50:02.703Z,39580
2022-10-02T09:55:04.632Z,11620
2022-10-02T10:00:03.200Z,35430
2022-10-02T10:05:07.406Z,42403.33
2022-10-02T10:10:03.349Z,13355
2022-10-02T10:15:08.942Z,41863.33
2022-10-02T10:20:03.204Z,38366.67
2022-10-02T10:25:03.152Z,45176.67
2022-10-02T10:30:02.682Z,43916.67
2022-10-02T10:35:03.404Z,7756.67
2022-10-02T10:40:02.898Z,8765
2022-10-02T10:45:02.851Z,29083.33
2022-10-02T10:50:03.135Z,39230
2022-10-02T10:55:04.344Z,6030
2022-10-02T11:00:02.987Z,38836.67
2022-10-02T11:05:02.748Z,32706.67
2022-10-02T11:10:03.231Z,10135
2022-10-02T11:15:02.905Z,30573.33
2022-10-02T11:20:02.796Z,32396.67
2022-10-02T11:25:02.629Z,28083.33
2022-10-02T11:30:03.214Z,33400
2022-10-02T11:35:02.947Z,2855
2022-10-02T11:40:03.416Z,45933.33
2022-10-02T11:45:03.439Z,7111.67
2022-10-02T11:50:02.873Z,3955
2022-10-02T11:55:03.592Z,2560
2022-10-02T12:00:03.485Z,2365
2022-10-02T12:05:02.841Z,2646.67
2022-10-02T12:15:03.346Z,2608.33
2022-10-02T12:20:03.126Z,12823.33
2022-10-02T12:25:02.493Z,27956.67
2022-10-02T12:30:03.341Z,27483.33
2022-10-02T12:35:02.937Z,13640
2022-10-02T12:40:02.254Z,2705
2022-10-02T12:45:12.062Z,10561.67
2022-10-02T12:50:02.786Z,5440
2022-10-02T12:55:04.611Z,11848.33
2022-10-02T13:00:03.131Z,12543.33
2022-10-02T13:05:02.749Z,12718.33
2022-10-02T13:10:03.465Z,11763.33
2022-10-02T13:15:03.150Z,11403.33
2022-10-02T13:20:02.701Z,11216.67
2022-10-02T13:25:02.693Z,3303.33
2022-10-02T13:30:03.383Z,11125
2022-10-02T13:35:03.191Z,11528.33
2022-10-02T13:40:02.722Z,11290
2022-10-02T13:45:03.414Z,10663.33
2022-10-02T13:50:03.029Z,9503.33
2022-10-02T13:55:03.824Z,8320
2022-10-02T14:00:03.504Z,3108.33
2022-10-02T14:05:03.181Z,7888.33
2022-10-02T14:10:02.760Z,7390
2022-10-02T14:15:03.419Z,4720
2022-10-02T14:20:03.223Z,3778.33
2022-10-02T14:25:02.747Z,3698.33
2022-10-02T14:30:03.422Z,2060
2022-10-02T14:35:03.017Z,1186.67
2022-10-02T14:40:02.695Z,2223.33
2022-10-02T14:45:03.402Z,2335
2022-10-02T14:55:04.527Z,1105
2022-10-02T15:00:02.494Z,3398.33
2022-10-02T15:05:04.951Z,2541.67
2022-10-02T15:10:03.302Z,2760
2022-10-02T15:15:02.657Z,1963.33
2022-10-02T15:20:03.295Z,2255
2022-10-02T15:25:03.496Z,2185
2022-10-02T15:30:02.977Z,2385
2022-10-02T15:35:02.573Z,2376.67
2022-10-02T15:40:03.289Z,1656.67
2022-10-02T15:45:03.076Z,1635
2022-10-02T15:50:02.783Z,1221.67
2022-10-02T15:55:04.522Z,1020
2022-10-02T16:00:03.166Z,1401.67
2022-10-02T16:05:02.765Z,971.67
2022-10-02T16:10:03.473Z,713.33
2022-10-02T16:15:03.136Z,650
2022-10-02T16:20:02.763Z,568.33
2022-10-02T16:25:03.448Z,511.67
2022-10-02T16:30:03.256Z,433.33
2022-10-02T16:35:02.834Z,350
2022-10-02T16:40:03.458Z,258.33
2022-10-02T16:45:03.154Z,180
2022-10-02T16:50:02.687Z,110
2022-10-02T16:55:04.513Z,65
2022-10-02T17:00:03.152Z,31.67
2022-10-02T17:05:02.780Z,15
2022-10-02T17:10:03.599Z,5
2022-10-02T17:15:03.084Z,5.21
2022-10-02T17:20:02.614Z,0.79
2022-10-02T17:25:02.643Z,0.23
2022-10-02T17:30:03.387Z,0
2022-10-02T17:35:02.955Z,0
2022-10-02T17:40:02.686Z,0
2022-10-02T17:45:03.353Z,0
2022-10-02T17:50:02.924Z,0
2022-10-02T17:55:04.482Z,0
2022-10-02T18:00:05.158Z,0
2022-10-02T18:05:02.820Z,0
2022-10-02T18:10:03.503Z,0
2022-10-02T18:15:03.166Z,0
2022-10-02T18:20:03.118Z,0
2022-10-02T18:25:03.038Z,0
2022-10-02T18:30:02.583Z,0
2022-10-02T18:35:03.169Z,0
2022-10-02T18:40:07.875Z,0
2022-10-02T18:45:02.592Z,0
2022-10-02T18:50:03.180Z,0
2022-10-02T18:55:03.681Z,0
2022-10-02T19:00:02.462Z,0
2022-10-02T19:05:03.210Z,0
2022-10-02T19:10:03.130Z,0
2022-10-02T19:15:02.697Z,0
2022-10-02T19:20:07.532Z,0
2022-10-02T19:25:03.203Z,0
2022-10-02T19:35:03.477Z,0
2022-10-02T19:40:03.152Z,0
2022-10-02T19:45:02.831Z,0
2022-10-02T19:50:03.512Z,0
2022-10-02T19:55:04.160Z,0
2022-10-02T20:00:02.638Z,0
2022-10-02T20:05:03.255Z,0
2022-10-02T20:10:02.913Z,0
2022-10-02T20:15:02.835Z,0
2022-10-02T20:20:03.499Z,0
2022-10-02T20:25:03.119Z,0
2022-10-02T20:30:02.773Z,0
2022-10-02T20:35:02.616Z,0
2022-10-02T20:40:03.274Z,0
2022-10-02T20:45:02.957Z,0
2022-10-02T20:50:02.616Z,0
2022-10-02T20:55:04.660Z,0
2022-10-02T21:00:02.877Z,0
2022-10-02T21:05:02.545Z,0
2022-10-02T21:10:03.217Z,0
2022-10-02T21:15:02.909Z,0
2022-10-02T21:20:02.661Z,0
2022-10-02T21:30:03.113Z,0
2022-10-02T21:35:02.708Z,0
2022-10-02T21:45:04.981Z,0
2022-10-02T21:50:02.706Z,0
2022-10-02T21:55:04.681Z,0
2022-10-02T22:00:03.162Z,0
2022-10-02T22:05:02.741Z,0
2022-10-02T22:10:03.238Z,0
2022-10-02T22:15:02.768Z,0
2022-10-02T22:20:03.458Z,0
2022-10-02T22:25:03.075Z,0
2022-10-02T22:30:02.901Z,0
2022-10-02T22:35:02.480Z,0
2022-10-02T22:40:03.156Z,0
2022-10-02T22:45:02.869Z,0
2022-10-02T22:50:03.370Z,0
2022-10-02T22:55:04.012Z,0
2022-10-02T23:00:02.641Z,0
2022-10-02T23:05:03.309Z,0
2022-10-02T23:10:02.952Z,0
2022-10-02T23:15:02.596Z,0
2022-10-02T23:20:03.261Z,0
2022-10-02T23:25:02.887Z,0
2022-10-02T23:30:02.597Z,0
2022-10-02T23:35:03.372Z,0
2022-10-02T23:40:03.024Z,0
2022-10-02T23:45:02.715Z,0
2022-10-02T23:50:03.335Z,0
2022-10-02T23:55:04.005Z,0
